createdAt,value
2019-05-21T00:00:03.815Z,995.72
2019-05-21T00:01:03.803Z,995.73
2019-05-21T00:02:03.783Z,995.69
2019-05-21T00:03:03.793Z,995.70
2019-05-21T00:04:03.769Z,995.70
2019-05-21T00:05:03.769Z,995.66
2019-05-21T00:06:03.735Z,995.70
2019-05-21T00:07:03.728Z,995.71
2019-05-21T00:08:03.740Z,995.69
2019-05-21T00:09:03.717Z,995.67
2019-05-21T00:10:03.746Z,995.70
2019-05-21T00:11:03.675Z,995.68
2019-05-21T00:12:03.732Z,995.69
2019-05-21T00:13:03.671Z,995.70
2019-05-21T00:14:03.667Z,995.66
2019-05-21T00:15:03.654Z,995.72
2019-05-21T00:16:03.629Z,995.72
2019-05-21T00:17:03.613Z,995.71
2019-05-21T00:18:03.602Z,995.74
2019-05-21T00:19:03.592Z,995.78
2019-05-21T00:20:03.605Z,995.76
2019-05-21T00:21:03.571Z,995.80
2019-05-21T00:22:03.584Z,995.82
2019-05-21T00:23:03.560Z,995.86
2019-05-21T00:24:03.564Z,995.86
2019-05-21T00:25:03.567Z,995.86
2019-05-21T00:26:03.513Z,995.88
2019-05-21T00:27:03.515Z,995.83
2019-05-21T00:28:03.512Z,995.86
2019-05-21T00:29:03.488Z,995.85
2019-05-21T00:30:03.501Z,995.85
2019-05-21T00:31:03.465Z,995.85
2019-05-21T00:32:03.467Z,995.85
2019-05-21T00:33:03.447Z,995.88
2019-05-21T00:34:03.432Z,995.88
2019-05-21T00:35:03.488Z,995.87
2019-05-21T00:36:03.429Z,995.92
2019-05-21T00:37:03.413Z,995.91
2019-05-21T00:38:03.389Z,995.90
2019-05-21T00:39:03.392Z,995.93
2019-05-21T00:40:03.353Z,995.92
2019-05-21T00:41:03.375Z,995.88
2019-05-21T00:42:03.378Z,995.94
2019-05-21T00:43:03.322Z,995.90
2019-05-21T00:44:03.325Z,995.93
2019-05-21T00:45:03.315Z,995.91
2019-05-21T00:46:03.308Z,995.94
2019-05-21T00:47:03.306Z,995.99
2019-05-21T00:48:05.748Z,995.99
2019-05-21T00:49:03.264Z,995.97
2019-05-21T00:50:03.295Z,996.00
2019-05-21T00:51:03.238Z,996.00
2019-05-21T00:52:07.928Z,995.96
2019-05-21T00:53:04.241Z,996.02
2019-05-21T00:54:03.222Z,995.96
2019-05-21T00:55:03.199Z,995.97
2019-05-21T00:56:03.220Z,995.99
2019-05-21T00:57:03.176Z,996.00
2019-05-21T00:58:03.175Z,996.00
2019-05-21T00:59:03.165Z,995.94
2019-05-21T01:00:03.185Z,996.01
2019-05-21T01:01:03.125Z,995.97
2019-05-21T01:02:03.131Z,995.98
2019-05-21T01:03:03.123Z,995.97
2019-05-21T01:04:03.115Z,995.93
2019-05-21T01:05:03.104Z,995.94
2019-05-21T01:06:03.093Z,995.97
2019-05-21T01:07:03.064Z,995.96
2019-05-21T01:08:03.069Z,995.96
2019-05-21T01:09:03.048Z,995.94
2019-05-21T01:10:03.072Z,995.99
2019-05-21T01:11:03.031Z,995.98
2019-05-21T01:12:03.018Z,996.01
2019-05-21T01:13:03.008Z,995.96
2019-05-21T01:14:03.013Z,995.97
2019-05-21T01:15:03.001Z,996.00
2019-05-21T01:16:02.972Z,996.02
2019-05-21T01:17:02.966Z,996.03
2019-05-21T01:18:02.950Z,996.00
2019-05-21T01:19:02.929Z,996.01
2019-05-21T01:20:02.919Z,996.01
2019-05-21T01:21:02.930Z,996.00
2019-05-21T01:22:02.905Z,996.04
2019-05-21T01:23:02.898Z,996.03
2019-05-21T01:24:02.901Z,995.99
2019-05-21T01:25:02.882Z,996.04
2019-05-21T01:26:02.850Z,996.01
2019-05-21T01:27:02.842Z,995.99
2019-05-21T01:28:02.830Z,995.97
2019-05-21T01:29:02.849Z,995.92
2019-05-21T01:30:02.814Z,995.92
2019-05-21T01:31:02.803Z,995.95
2019-05-21T01:32:03.250Z,995.90
2019-05-21T01:33:02.773Z,995.94
2019-05-21T01:34:02.788Z,995.96
2019-05-21T01:35:15.959Z,995.97
2019-05-21T01:36:03.748Z,995.95
2019-05-21T01:37:02.724Z,995.97
2019-05-21T01:38:02.726Z,995.98
2019-05-21T01:39:02.709Z,995.98
2019-05-21T01:40:02.713Z,995.94
2019-05-21T01:41:02.697Z,995.96
2019-05-21T01:42:02.683Z,995.92
2019-05-21T01:43:03.527Z,995.90
2019-05-21T01:44:02.744Z,995.87
2019-05-21T01:45:02.674Z,995.86
2019-05-21T01:46:02.648Z,995.85
2019-05-21T01:47:02.624Z,995.83
2019-05-21T01:48:02.637Z,995.89
2019-05-21T01:49:02.599Z,995.85
2019-05-21T01:50:02.610Z,995.86
2019-05-21T01:51:02.605Z,995.85
2019-05-21T01:52:02.589Z,995.88
2019-05-21T01:53:03.013Z,995.90
2019-05-21T01:54:02.575Z,995.87
2019-05-21T01:55:02.571Z,995.87
2019-05-21T01:56:02.538Z,995.83
2019-05-21T01:57:02.524Z,995.84
2019-05-21T01:58:02.499Z,995.88
2019-05-21T01:59:02.492Z,995.80
2019-05-21T02:00:02.503Z,995.82
2019-05-21T02:01:02.475Z,995.84
2019-05-21T02:02:02.480Z,995.89
2019-05-21T02:03:02.448Z,995.84
2019-05-21T02:04:02.430Z,995.90
2019-05-21T02:05:02.441Z,995.88
2019-05-21T02:06:02.432Z,995.89
2019-05-21T02:07:02.422Z,995.87
2019-05-21T02:08:02.401Z,995.87
2019-05-21T02:09:02.384Z,995.86
2019-05-21T02:10:02.372Z,995.84
2019-05-21T02:11:02.372Z,995.85
2019-05-21T02:12:02.337Z,995.86
2019-05-21T02:13:02.342Z,995.91
2019-05-21T02:14:02.332Z,995.95
2019-05-21T02:15:02.333Z,995.97
2019-05-21T02:16:02.317Z,995.99
2019-05-21T02:17:02.295Z,995.97
2019-05-21T02:18:02.277Z,996.01
2019-05-21T02:19:02.451Z,996.02
2019-05-21T02:20:02.261Z,995.96
2019-05-21T02:21:02.272Z,996.02
2019-05-21T02:22:02.225Z,996.03
2019-05-21T02:23:02.220Z,996.01
2019-05-21T02:24:02.226Z,996.01
2019-05-21T02:25:02.207Z,996.00
2019-05-21T02:26:02.223Z,995.99
2019-05-21T02:27:02.197Z,996.03
2019-05-21T02:28:02.172Z,996.05
2019-05-21T02:29:02.582Z,996.05
2019-05-21T02:30:02.605Z,996.02
2019-05-21T02:31:02.147Z,996.02
2019-05-21T02:32:02.124Z,995.98
2019-05-21T02:33:02.131Z,995.98
2019-05-21T02:34:02.139Z,995.93
2019-05-21T02:35:02.094Z,995.96
2019-05-21T02:36:02.149Z,995.99
2019-05-21T02:37:05.866Z,995.99
2019-05-21T02:38:02.070Z,996.02
2019-05-21T02:39:02.074Z,996.05
2019-05-21T02:40:02.054Z,996.06
2019-05-21T02:41:02.033Z,996.10
2019-05-21T02:42:02.056Z,996.12
2019-05-21T02:43:02.014Z,996.14
2019-05-21T02:44:01.982Z,996.11
2019-05-21T02:45:02.031Z,996.18
2019-05-21T02:46:02.001Z,996.13
2019-05-21T02:47:01.998Z,996.13
2019-05-21T02:48:01.971Z,996.16
2019-05-21T02:49:01.953Z,996.10
2019-05-21T02:50:01.961Z,996.11
2019-05-21T02:51:01.942Z,996.14
2019-05-21T02:52:01.942Z,996.13
2019-05-21T02:53:01.914Z,996.19
2019-05-21T02:54:01.878Z,996.20
2019-05-21T02:55:01.920Z,996.17
2019-05-21T02:56:01.864Z,996.21
2019-05-21T02:57:01.866Z,996.23
2019-05-21T02:58:01.840Z,996.22
2019-05-21T02:59:01.842Z,996.22
2019-05-21T03:00:01.827Z,996.26
2019-05-21T03:01:01.807Z,996.25
2019-05-21T03:02:01.800Z,996.29
2019-05-21T03:03:01.799Z,996.27
2019-05-21T03:04:01.778Z,996.30
2019-05-21T03:05:01.795Z,996.33
2019-05-21T03:06:13.185Z,996.32
2019-05-21T03:07:02.753Z,996.36
2019-05-21T03:08:01.772Z,996.36
2019-05-21T03:09:01.743Z,996.37
2019-05-21T03:10:01.754Z,996.42
2019-05-21T03:11:01.707Z,996.40
2019-05-21T03:12:01.708Z,996.38
2019-05-21T03:13:01.672Z,996.38
2019-05-21T03:14:01.664Z,996.33
2019-05-21T03:15:01.655Z,996.36
2019-05-21T03:16:01.642Z,996.36
2019-05-21T03:17:01.658Z,996.42
2019-05-21T03:18:01.643Z,996.43
2019-05-21T03:19:01.629Z,996.45
2019-05-21T03:20:01.672Z,996.48
2019-05-21T03:21:01.585Z,996.44
2019-05-21T03:22:01.602Z,996.42
2019-05-21T03:23:01.573Z,996.48
2019-05-21T03:24:01.568Z,996.43
2019-05-21T03:25:02.800Z,996.41
2019-05-21T03:26:01.530Z,996.45
2019-05-21T03:27:01.529Z,996.44
2019-05-21T03:28:01.515Z,996.47
2019-05-21T03:29:01.532Z,996.51
2019-05-21T03:30:01.498Z,996.53
2019-05-21T03:31:01.496Z,996.50
2019-05-21T03:32:01.499Z,996.50
2019-05-21T03:33:01.517Z,996.47
2019-05-21T03:34:01.471Z,996.44
2019-05-21T03:35:01.446Z,996.44
2019-05-21T03:36:01.410Z,996.48
2019-05-21T03:37:01.421Z,996.44
2019-05-21T03:38:01.401Z,996.48
2019-05-21T03:39:01.410Z,996.48
2019-05-21T03:40:01.400Z,996.54
2019-05-21T03:41:01.372Z,996.55
2019-05-21T03:42:01.382Z,996.60
2019-05-21T03:43:01.355Z,996.63
2019-05-21T03:44:01.334Z,996.68
2019-05-21T03:45:01.394Z,996.64
2019-05-21T03:46:01.318Z,996.64
2019-05-21T03:47:01.403Z,996.62
2019-05-21T03:48:01.282Z,996.64
2019-05-21T03:49:01.282Z,996.67
2019-05-21T03:50:01.293Z,996.67
2019-05-21T03:51:01.260Z,996.69
2019-05-21T03:52:01.252Z,996.69
2019-05-21T03:53:01.232Z,996.65
2019-05-21T03:54:01.225Z,996.68
2019-05-21T03:55:03.107Z,996.68
2019-05-21T03:56:01.208Z,996.65
2019-05-21T03:57:01.205Z,996.69
2019-05-21T03:58:01.168Z,996.67
2019-05-21T03:59:01.164Z,996.70
2019-05-21T04:00:01.246Z,996.66
2019-05-21T04:01:01.136Z,996.69
2019-05-21T04:02:01.146Z,996.71
2019-05-21T04:03:01.122Z,996.72
2019-05-21T04:04:01.154Z,996.71
2019-05-21T04:05:01.109Z,996.68
2019-05-21T04:06:01.098Z,996.69
2019-05-21T04:07:01.079Z,996.67
2019-05-21T04:08:01.080Z,996.66
2019-05-21T04:09:01.066Z,996.66
2019-05-21T04:10:01.054Z,996.65
2019-05-21T04:11:01.024Z,996.66
2019-05-21T04:12:01.028Z,996.68
2019-05-21T04:13:01.019Z,996.67
2019-05-21T04:14:01.003Z,996.69
2019-05-21T04:15:01.025Z,996.67
2019-05-21T04:16:00.994Z,996.72
2019-05-21T04:17:00.982Z,996.76
2019-05-21T04:18:00.989Z,996.74
2019-05-21T04:19:00.966Z,996.73
2019-05-21T04:20:00.937Z,996.69
2019-05-21T04:21:00.944Z,996.70
2019-05-21T04:22:00.943Z,996.72
2019-05-21T04:23:00.927Z,996.78
2019-05-21T04:24:00.893Z,996.78
2019-05-21T04:25:00.871Z,996.77
2019-05-21T04:26:00.872Z,996.78
2019-05-21T04:27:00.896Z,996.80
2019-05-21T04:28:00.857Z,996.72
2019-05-21T04:29:00.835Z,996.82
2019-05-21T04:30:00.821Z,996.76
2019-05-21T04:31:00.803Z,996.81
2019-05-21T04:32:00.803Z,996.80
2019-05-21T04:33:00.809Z,996.81
2019-05-21T04:34:00.786Z,996.89
2019-05-21T04:35:00.777Z,996.83
2019-05-21T04:36:00.769Z,996.83
2019-05-21T04:37:10.480Z,996.80
2019-05-21T04:38:01.748Z,996.77
2019-05-21T04:39:00.721Z,996.74
2019-05-21T04:40:00.786Z,996.76
2019-05-21T04:41:00.719Z,996.73
2019-05-21T04:42:00.701Z,996.76
2019-05-21T04:43:02.289Z,996.75
2019-05-21T04:44:00.681Z,996.74
2019-05-21T04:45:00.656Z,996.76
2019-05-21T04:46:00.669Z,996.74
2019-05-21T04:47:00.656Z,996.71
2019-05-21T04:48:00.637Z,996.76
2019-05-21T04:49:00.642Z,996.76
2019-05-21T04:50:00.583Z,996.79
2019-05-21T04:51:00.585Z,996.80
2019-05-21T04:52:00.571Z,996.81
2019-05-21T04:53:00.579Z,996.80
2019-05-21T04:54:00.582Z,996.81
2019-05-21T04:55:00.551Z,996.86
2019-05-21T04:56:00.533Z,996.86
2019-05-21T04:57:00.509Z,996.80
2019-05-21T04:58:00.515Z,996.83
2019-05-21T04:59:00.514Z,996.82
2019-05-21T05:00:00.485Z,996.79
2019-05-21T05:01:00.477Z,996.84
2019-05-21T05:02:00.459Z,996.88
2019-05-21T05:03:00.461Z,996.86
2019-05-21T05:04:00.457Z,996.86
2019-05-21T05:05:00.444Z,996.88
2019-05-21T05:06:00.419Z,996.92
2019-05-21T05:07:00.423Z,996.90
2019-05-21T05:08:00.422Z,996.91
2019-05-21T05:09:00.388Z,996.89
2019-05-21T05:10:00.376Z,996.93
2019-05-21T05:11:00.347Z,996.96
2019-05-21T05:12:00.364Z,996.93
2019-05-21T05:13:00.366Z,996.88
2019-05-21T05:14:00.353Z,996.90
2019-05-21T05:15:00.310Z,996.92
2019-05-21T05:16:03.754Z,996.91
2019-05-21T05:17:00.303Z,996.95
2019-05-21T05:18:00.301Z,996.97
2019-05-21T05:19:00.298Z,996.96
2019-05-21T05:20:00.274Z,996.94
2019-05-21T05:21:00.252Z,996.97
2019-05-21T05:22:00.238Z,996.89
2019-05-21T05:23:00.237Z,996.91
2019-05-21T05:24:00.217Z,996.97
2019-05-21T05:25:00.218Z,996.94
2019-05-21T05:26:00.203Z,996.96
2019-05-21T05:27:00.191Z,997.00
2019-05-21T05:28:00.199Z,996.93
2019-05-21T05:29:00.165Z,996.92
2019-05-21T05:30:00.156Z,996.92
2019-05-21T05:31:00.145Z,996.87
2019-05-21T05:32:00.132Z,996.94
2019-05-21T05:33:00.136Z,996.99
2019-05-21T05:34:00.104Z,997.00
2019-05-21T05:35:00.119Z,997.00
2019-05-21T05:36:00.091Z,997.03
2019-05-21T05:37:00.084Z,997.05
2019-05-21T05:38:00.067Z,997.05
2019-05-21T05:39:00.063Z,997.09
2019-05-21T05:40:00.039Z,997.04
2019-05-21T05:41:00.033Z,997.05
2019-05-21T05:42:00.015Z,997.10
2019-05-21T05:43:00.018Z,997.12
2019-05-21T05:44:00.013Z,997.14
2019-05-21T05:45:00.115Z,997.13
2019-05-21T05:45:59.980Z,997.15
2019-05-21T05:46:59.971Z,997.14
2019-05-21T05:47:59.954Z,997.09
2019-05-21T05:49:01.768Z,997.17
2019-05-21T05:49:59.945Z,997.17
2019-05-21T05:50:59.941Z,997.18
2019-05-21T05:51:59.917Z,997.24
2019-05-21T05:52:59.899Z,997.18
2019-05-21T05:53:59.896Z,997.19
2019-05-21T05:54:59.879Z,997.19
2019-05-21T05:55:59.866Z,997.20
2019-05-21T05:56:59.939Z,997.27
2019-05-21T05:57:59.848Z,997.25
2019-05-21T05:58:59.859Z,997.24
2019-05-21T05:59:59.831Z,997.24
2019-05-21T06:00:59.812Z,997.25
2019-05-21T06:01:59.801Z,997.21
2019-05-21T06:02:59.784Z,997.24
2019-05-21T06:03:59.794Z,997.29
2019-05-21T06:04:59.774Z,997.31
2019-05-21T06:05:59.750Z,997.32
2019-05-21T06:06:59.748Z,997.28
2019-05-21T06:08:00.620Z,997.27
2019-05-21T06:08:59.760Z,997.26
2019-05-21T06:09:59.723Z,997.29
2019-05-21T06:10:59.700Z,997.31
2019-05-21T06:11:59.751Z,997.31
2019-05-21T06:12:59.672Z,997.38
2019-05-21T06:13:59.684Z,997.31
2019-05-21T06:14:59.665Z,997.35
2019-05-21T06:15:59.654Z,997.35
2019-05-21T06:16:59.643Z,997.27
2019-05-21T06:17:59.640Z,997.28
2019-05-21T06:18:59.621Z,997.35
2019-05-21T06:20:00.618Z,997.34
2019-05-21T06:20:59.597Z,997.33
2019-05-21T06:21:59.591Z,997.30
2019-05-21T06:22:59.581Z,997.31
2019-05-21T06:23:59.585Z,997.30
2019-05-21T06:24:59.592Z,997.36
2019-05-21T06:25:59.533Z,997.31
2019-05-21T06:26:59.526Z,997.30
2019-05-21T06:27:59.526Z,997.28
2019-05-21T06:28:59.517Z,997.34
2019-05-21T06:29:59.493Z,997.36
2019-05-21T06:30:59.491Z,997.37
2019-05-21T06:31:59.474Z,997.34
2019-05-21T06:32:59.462Z,997.39
2019-05-21T06:33:59.457Z,997.42
2019-05-21T06:34:59.451Z,997.33
2019-05-21T06:35:59.441Z,997.35
2019-05-21T06:36:59.421Z,997.35
2019-05-21T06:38:16.188Z,997.36
2019-05-21T06:39:00.415Z,997.37
2019-05-21T06:39:59.387Z,997.39
2019-05-21T06:40:59.379Z,997.41
2019-05-21T06:41:59.362Z,997.45
2019-05-21T06:42:59.368Z,997.45
2019-05-21T06:43:59.369Z,997.44
2019-05-21T06:44:59.341Z,997.47
2019-05-21T06:45:59.317Z,997.48
2019-05-21T06:46:59.323Z,997.52
2019-05-21T06:47:59.296Z,997.49
2019-05-21T06:48:59.308Z,997.44
2019-05-21T06:49:59.284Z,997.51
2019-05-21T06:50:59.280Z,997.54
2019-05-21T06:51:59.290Z,997.55
2019-05-21T06:52:59.277Z,997.54
2019-05-21T06:53:59.270Z,997.55
2019-05-21T06:54:59.287Z,997.61
2019-05-21T06:55:59.225Z,997.60
2019-05-21T06:56:59.213Z,997.62
2019-05-21T06:57:59.193Z,997.64
2019-05-21T06:58:59.202Z,997.60
2019-05-21T06:59:59.347Z,997.63
2019-05-21T07:00:59.188Z,997.64
2019-05-21T07:01:59.157Z,997.69
2019-05-21T07:02:59.147Z,997.70
2019-05-21T07:03:59.166Z,997.67
2019-05-21T07:04:59.129Z,997.72
2019-05-21T07:05:59.647Z,997.69
2019-05-21T07:06:59.110Z,997.76
2019-05-21T07:07:59.110Z,997.75
2019-05-21T07:08:59.100Z,997.63
2019-05-21T07:09:59.065Z,997.68
2019-05-21T07:10:59.055Z,997.69
2019-05-21T07:11:59.060Z,997.66
2019-05-21T07:12:59.051Z,997.66
2019-05-21T07:13:59.065Z,997.69
2019-05-21T07:14:59.051Z,997.71
2019-05-21T07:15:59.019Z,997.70
2019-05-21T07:16:58.995Z,997.70
2019-05-21T07:17:58.989Z,997.72
2019-05-21T07:18:58.996Z,997.75
2019-05-21T07:19:58.967Z,997.72
2019-05-21T07:20:58.962Z,997.74
2019-05-21T07:22:12.014Z,997.80
2019-05-21T07:22:59.969Z,997.74
2019-05-21T07:23:58.933Z,997.81
2019-05-21T07:24:58.927Z,997.77
2019-05-21T07:25:58.909Z,997.82
2019-05-21T07:26:58.923Z,997.83
2019-05-21T07:27:58.897Z,997.80
2019-05-21T07:28:58.917Z,997.87
2019-05-21T07:29:58.867Z,997.84
2019-05-21T07:30:58.849Z,997.93
2019-05-21T07:31:58.847Z,997.93
2019-05-21T07:32:58.870Z,997.95
2019-05-21T07:33:58.859Z,997.94
2019-05-21T07:34:58.818Z,997.93
2019-05-21T07:35:58.811Z,997.99
2019-05-21T07:36:58.797Z,998.02
2019-05-21T07:37:58.821Z,997.98
2019-05-21T07:38:58.775Z,997.94
2019-05-21T07:39:58.776Z,997.99
2019-05-21T07:40:58.830Z,998.02
2019-05-21T07:41:58.741Z,997.97
2019-05-21T07:42:58.758Z,997.99
2019-05-21T07:43:58.730Z,997.95
2019-05-21T07:44:58.732Z,997.94
2019-05-21T07:45:58.704Z,997.98
2019-05-21T07:46:58.702Z,998.02
2019-05-21T07:47:58.682Z,997.99
2019-05-21T07:48:58.659Z,998.04
2019-05-21T07:49:58.661Z,998.03
2019-05-21T07:50:58.639Z,998.01
2019-05-21T07:51:58.639Z,998.05
2019-05-21T07:52:58.689Z,998.03
2019-05-21T07:53:58.628Z,998.04
2019-05-21T07:54:58.615Z,998.04
2019-05-21T07:55:58.595Z,998.06
2019-05-21T07:56:58.602Z,998.11
2019-05-21T07:57:58.585Z,998.06
2019-05-21T07:58:58.572Z,998.06
2019-05-21T07:59:58.566Z,998.10
2019-05-21T08:01:01.329Z,998.08
2019-05-21T08:01:58.534Z,998.10
2019-05-21T08:02:58.544Z,998.14
2019-05-21T08:03:58.514Z,998.12
2019-05-21T08:04:58.527Z,998.18
2019-05-21T08:05:58.500Z,998.23
2019-05-21T08:06:58.498Z,998.23
2019-05-21T08:07:58.478Z,998.21
2019-05-21T08:09:12.709Z,998.22
2019-05-21T08:09:59.480Z,998.20
2019-05-21T08:10:58.448Z,998.20
2019-05-21T08:11:58.432Z,998.19
2019-05-21T08:12:58.432Z,998.21
2019-05-21T08:13:58.417Z,998.20
2019-05-21T08:14:58.419Z,998.17
2019-05-21T08:15:58.397Z,998.22
2019-05-21T08:16:58.412Z,998.23
2019-05-21T08:17:58.379Z,998.27
2019-05-21T08:18:58.378Z,998.33
2019-05-21T08:20:08.800Z,998.28
2019-05-21T08:20:59.345Z,998.27
2019-05-21T08:21:58.341Z,998.25
2019-05-21T08:22:58.321Z,998.27
2019-05-21T08:23:58.318Z,998.31
2019-05-21T08:24:58.338Z,998.29
2019-05-21T08:25:58.303Z,998.31
2019-05-21T08:26:58.294Z,998.31
2019-05-21T08:27:58.280Z,998.35
2019-05-21T08:28:58.300Z,998.35
2019-05-21T08:29:58.278Z,998.40
2019-05-21T08:31:01.586Z,998.36
2019-05-21T08:31:58.245Z,998.39
2019-05-21T08:32:58.228Z,998.41
2019-05-21T08:33:58.220Z,998.39
2019-05-21T08:34:58.226Z,998.44
2019-05-21T08:35:58.203Z,998.43
2019-05-21T08:36:58.222Z,998.47
2019-05-21T08:37:58.194Z,998.46
2019-05-21T08:38:58.179Z,998.42
2019-05-21T08:39:58.190Z,998.44
2019-05-21T08:40:58.154Z,998.41
2019-05-21T08:41:58.149Z,998.39
2019-05-21T08:42:58.147Z,998.38
2019-05-21T08:43:58.140Z,998.45
2019-05-21T08:44:58.153Z,998.28
2019-05-21T08:45:58.115Z,998.33
2019-05-21T08:46:58.100Z,998.42
2019-05-21T08:47:58.084Z,998.43
2019-05-21T08:48:58.081Z,998.50
2019-05-21T08:49:58.071Z,998.49
2019-05-21T08:50:58.074Z,998.44
2019-05-21T08:51:58.054Z,998.42
2019-05-21T08:52:58.031Z,998.46
2019-05-21T08:53:58.029Z,998.26
2019-05-21T08:54:58.017Z,998.52
2019-05-21T08:55:58.020Z,998.44
2019-05-21T08:56:58.006Z,998.50
2019-05-21T08:58:06.924Z,998.50
2019-05-21T08:58:58.977Z,998.41
2019-05-21T08:59:57.972Z,998.46
2019-05-21T09:00:57.984Z,998.47
2019-05-21T09:01:59.045Z,998.51
2019-05-21T09:02:57.947Z,998.56
2019-05-21T09:03:57.939Z,998.55
2019-05-21T09:04:57.925Z,998.45
2019-05-21T09:05:57.921Z,998.44
2019-05-21T09:06:57.903Z,998.45
2019-05-21T09:07:57.888Z,998.49
2019-05-21T09:08:57.895Z,998.51
2019-05-21T09:09:57.885Z,998.50
2019-05-21T09:10:57.883Z,998.52
2019-05-21T09:11:57.859Z,998.58
2019-05-21T09:12:57.848Z,998.57
2019-05-21T09:13:57.847Z,998.59
2019-05-21T09:14:57.832Z,998.63
2019-05-21T09:15:57.920Z,998.62
2019-05-21T09:16:57.814Z,998.47
2019-05-21T09:17:57.795Z,998.61
2019-05-21T09:18:57.803Z,998.33
2019-05-21T09:19:57.792Z,998.34
2019-05-21T09:20:57.782Z,998.35
2019-05-21T09:21:57.783Z,998.32
2019-05-21T09:22:57.753Z,998.58
2019-05-21T09:23:57.751Z,998.54
2019-05-21T09:24:57.718Z,998.41
2019-05-21T09:25:57.714Z,998.55
2019-05-21T09:26:57.733Z,998.62
2019-05-21T09:27:57.699Z,998.72
2019-05-21T09:28:57.693Z,998.66
2019-05-21T09:29:57.697Z,998.66
2019-05-21T09:31:01.465Z,998.60
2019-05-21T09:31:57.667Z,998.58
2019-05-21T09:32:57.656Z,998.62
2019-05-21T09:33:57.665Z,998.66
2019-05-21T09:34:57.657Z,998.64
2019-05-21T09:35:57.626Z,998.51
2019-05-21T09:36:57.634Z,998.40
2019-05-21T09:37:57.591Z,998.43
2019-05-21T09:38:57.607Z,998.46
2019-05-21T09:39:57.583Z,998.41
2019-05-21T09:40:57.586Z,998.41
2019-05-21T09:41:57.571Z,998.36
2019-05-21T09:42:57.570Z,998.37
2019-05-21T09:43:57.550Z,998.38
2019-05-21T09:44:57.528Z,998.34
2019-05-21T09:45:57.521Z,998.35
2019-05-21T09:46:57.520Z,998.38
2019-05-21T09:47:57.552Z,998.32
2019-05-21T09:48:57.489Z,998.35
2019-05-21T09:49:57.480Z,998.34
2019-05-21T09:50:57.474Z,998.35
2019-05-21T09:51:57.533Z,998.31
2019-05-21T09:52:57.482Z,998.37
2019-05-21T09:53:57.453Z,998.54
2019-05-21T09:54:57.460Z,998.54
2019-05-21T09:55:57.423Z,998.54
2019-05-21T09:56:57.411Z,998.57
2019-05-21T09:57:57.412Z,998.58
2019-05-21T09:58:57.459Z,998.64
2019-05-21T09:59:57.381Z,998.62
2019-05-21T10:00:57.389Z,998.66
2019-05-21T10:01:57.373Z,998.66
2019-05-21T10:02:57.370Z,998.71
2019-05-21T10:03:57.359Z,998.63
2019-05-21T10:04:57.334Z,998.62
2019-05-21T10:05:57.329Z,998.61
2019-05-21T10:06:57.327Z,998.63
2019-05-21T10:07:57.310Z,998.67
2019-05-21T10:08:57.297Z,998.71
2019-05-21T10:09:57.277Z,998.73
2019-05-21T10:10:57.263Z,998.74
2019-05-21T10:11:57.262Z,998.78
2019-05-21T10:12:57.270Z,998.80
2019-05-21T10:13:57.252Z,998.56
2019-05-21T10:14:57.240Z,998.76
2019-05-21T10:16:01.189Z,998.53
2019-05-21T10:16:57.217Z,998.64
2019-05-21T10:17:57.207Z,998.65
2019-05-21T10:18:57.255Z,998.54
2019-05-21T10:19:58.997Z,998.68
2019-05-21T10:20:57.188Z,998.55
2019-05-21T10:21:57.285Z,998.46
2019-05-21T10:22:57.155Z,998.46
2019-05-21T10:23:57.169Z,998.69
2019-05-21T10:24:57.148Z,998.67
2019-05-21T10:25:57.131Z,998.46
2019-05-21T10:26:57.127Z,998.63
2019-05-21T10:27:57.121Z,998.66
2019-05-21T10:28:57.104Z,998.45
2019-05-21T10:29:57.089Z,998.40
2019-05-21T10:30:57.080Z,998.41
2019-05-21T10:31:57.073Z,998.39
2019-05-21T10:32:57.059Z,998.66
2019-05-21T10:33:57.072Z,998.44
2019-05-21T10:34:57.044Z,998.47
2019-05-21T10:35:57.035Z,998.44
2019-05-21T10:36:57.034Z,998.37
2019-05-21T10:37:57.031Z,998.48
2019-05-21T10:38:57.053Z,998.42
2019-05-21T10:39:57.002Z,998.51
2019-05-21T10:40:56.969Z,998.58
2019-05-21T10:41:56.961Z,998.56
2019-05-21T10:42:56.960Z,998.49
2019-05-21T10:43:56.960Z,998.46
2019-05-21T10:44:56.966Z,998.49
2019-05-21T10:45:56.952Z,998.67
2019-05-21T10:46:56.925Z,998.65
2019-05-21T10:47:56.923Z,998.62
2019-05-21T10:48:56.901Z,998.60
2019-05-21T10:49:56.895Z,998.57
2019-05-21T10:50:56.885Z,998.68
2019-05-21T10:51:56.887Z,998.80
2019-05-21T10:52:56.869Z,998.72
2019-05-21T10:53:56.856Z,998.80
2019-05-21T10:54:56.856Z,998.78
2019-05-21T10:55:56.823Z,998.83
2019-05-21T10:56:56.824Z,998.75
2019-05-21T10:57:56.808Z,998.89
2019-05-21T10:58:56.804Z,998.93
2019-05-21T10:59:56.789Z,998.83
2019-05-21T11:00:56.808Z,998.89
2019-05-21T11:01:56.776Z,998.77
2019-05-21T11:02:56.790Z,998.87
2019-05-21T11:03:56.741Z,998.77
2019-05-21T11:04:56.746Z,998.81
2019-05-21T11:06:09.554Z,998.71
2019-05-21T11:06:57.717Z,998.69
2019-05-21T11:07:56.721Z,998.69
2019-05-21T11:08:56.705Z,998.64
2019-05-21T11:09:56.726Z,998.67
2019-05-21T11:10:56.688Z,998.66
2019-05-21T11:11:56.677Z,998.59
2019-05-21T11:12:56.659Z,998.69
2019-05-21T11:13:56.646Z,998.74
2019-05-21T11:14:56.643Z,998.68
2019-05-21T11:15:56.898Z,998.66
2019-05-21T11:16:56.631Z,998.60
2019-05-21T11:18:09.599Z,998.63
2019-05-21T11:18:57.602Z,998.58
2019-05-21T11:19:56.599Z,998.60
2019-05-21T11:20:56.587Z,998.61
2019-05-21T11:21:56.558Z,998.69
2019-05-21T11:22:58.457Z,998.65
2019-05-21T11:23:56.615Z,998.66
2019-05-21T11:24:56.544Z,998.69
2019-05-21T11:25:56.525Z,998.67
2019-05-21T11:26:56.529Z,998.66
2019-05-21T11:27:56.496Z,998.68
2019-05-21T11:28:56.511Z,998.76
2019-05-21T11:29:56.487Z,998.80
2019-05-21T11:30:56.502Z,998.72
2019-05-21T11:31:57.826Z,998.73
2019-05-21T11:32:56.443Z,998.75
2019-05-21T11:33:56.442Z,998.69
2019-05-21T11:34:56.429Z,998.65
2019-05-21T11:35:56.426Z,998.65
2019-05-21T11:36:56.441Z,998.76
2019-05-21T11:37:56.409Z,998.85
2019-05-21T11:38:56.383Z,998.84
2019-05-21T11:39:56.380Z,998.86
2019-05-21T11:40:56.389Z,998.88
2019-05-21T11:41:56.395Z,998.79
2019-05-21T11:42:56.369Z,998.91
2019-05-21T11:43:56.356Z,998.85
2019-05-21T11:44:56.352Z,998.84
2019-05-21T11:45:56.314Z,998.76
2019-05-21T11:46:56.312Z,998.78
2019-05-21T11:47:56.304Z,998.72
2019-05-21T11:48:56.302Z,998.66
2019-05-21T11:49:56.294Z,998.62
2019-05-21T11:50:56.285Z,998.62
2019-05-21T11:51:56.275Z,998.59
2019-05-21T11:52:56.268Z,998.57
2019-05-21T11:53:56.237Z,998.63
2019-05-21T11:54:56.253Z,998.62
2019-05-21T11:55:56.229Z,998.69
2019-05-21T11:56:56.209Z,998.75
2019-05-21T11:57:56.232Z,998.77
2019-05-21T11:58:56.182Z,998.73
2019-05-21T11:59:56.212Z,998.70
2019-05-21T12:00:56.186Z,998.70
2019-05-21T12:01:56.172Z,998.72
2019-05-21T12:02:56.169Z,998.68
2019-05-21T12:03:56.152Z,998.71
2019-05-21T12:04:56.138Z,998.74
2019-05-21T12:05:56.112Z,998.74
2019-05-21T12:06:56.109Z,998.74
2019-05-21T12:07:56.118Z,998.76
2019-05-21T12:08:57.323Z,998.82
2019-05-21T12:09:56.087Z,998.76
2019-05-21T12:10:56.090Z,998.77
2019-05-21T12:11:56.062Z,998.73
2019-05-21T12:12:56.068Z,998.72
2019-05-21T12:13:56.043Z,998.69
2019-05-21T12:14:56.037Z,998.67
2019-05-21T12:15:56.028Z,998.70
2019-05-21T12:16:56.013Z,998.69
2019-05-21T12:17:56.022Z,998.73
2019-05-21T12:18:56.022Z,998.67
2019-05-21T12:19:55.977Z,998.69
2019-05-21T12:20:55.978Z,998.66
2019-05-21T12:21:55.956Z,998.69
2019-05-21T12:22:55.963Z,998.64
2019-05-21T12:23:55.944Z,998.63
2019-05-21T12:24:55.923Z,998.71
2019-05-21T12:25:55.918Z,998.60
2019-05-21T12:26:55.910Z,998.58
2019-05-21T12:27:55.897Z,998.59